Time;durP1;ratioP1;P1;durP2;ratioP2;P2;SDS_P1;SDS_P2;PMS_P1;PMS_P2;Temp;Humidity;BMP_temperature;BMP_pressure;BME280_temperature;BME280_humidity;BME280_pressure;Samples;Min_cycle;Max_cycle;Signal;HPM_P1;HPM_P2
2023/07/28 00:02:08;;;;;;;;;;;;;;;12.83;76.35;95324.72;5134335;28;1095;-58
2023/07/28 00:04:35;;;;;;;;;;;;;;;12.72;76.51;95322.41;5134187;28;1051;-58
2023/07/28 00:07:01;;;;;;;;;;;;;;;12.54;77.63;95319.94;5134494;28;1998;-58
2023/07/28 00:09:27;;;;;;;;;;;;;;;12.79;76.96;95330.63;5134368;28;964;-58
2023/07/28 00:11:53;;;;;;;;;;;;;;;12.97;76.22;95327.72;5134384;28;1037;-58
2023/07/28 00:14:19;;;;;;;;;;;;;;;13.20;75.64;95327.81;5133981;28;1068;-58
2023/07/28 00:16:45;;;;;;;;;;;;;;;13.23;75.45;95328.31;5134563;28;1222;-58
2023/07/28 00:19:11;;;;;;;;;;;;;;;12.78;76.47;95337.81;5134395;28;993;-58
2023/07/28 00:21:37;;;;;;;;;;;;;;;12.57;77.59;95332.16;5134136;28;1114;-58
2023/07/28 00:24:03;;;;;;;;;;;;;;;12.59;77.63;95322.09;5134417;28;989;-58
2023/07/28 00:26:28;;;;;;;;;;;;;;;12.93;76.25;95321.84;5134006;28;1906;-58
2023/07/28 00:28:54;;;;;;;;;;;;;;;13.21;74.63;95326.81;5134320;28;1102;-58
2023/07/28 00:31:20;;;;;;;;;;;;;;;13.09;75.01;95324.50;5133963;28;1047;-58
2023/07/28 00:33:46;;;;;;;;;;;;;;;12.99;75.14;95323.00;5134029;28;1047;-58
2023/07/28 00:36:12;;;;;;;;;;;;;;;12.86;75.66;95331.59;5133879;28;1078;-57
2023/07/28 00:38:38;;;;;;;;;;;;;;;12.79;76.02;95319.88;5133959;28;1114;-58
2023/07/28 00:41:04;;;;;;;;;;;;;;;13.00;75.23;95314.78;5134084;28;1028;-58
2023/07/28 00:43:30;;;;;;;;;;;;;;;13.05;75.05;95317.81;5133958;28;978;-58
2023/07/28 00:45:56;;;;;;;;;;;;;;;12.88;75.28;95319.69;5134151;28;1913;-58
2023/07/28 00:48:22;;;;;;;;;;;;;;;12.59;76.45;95314.03;5133831;28;965;-58
2023/07/28 00:50:49;;;;;;;;;;;;;;;12.38;77.46;95322.59;5133853;28;1031;-58
2023/07/28 00:53:15;;;;;;;;;;;;;;;12.53;77.43;95326.28;5134028;28;971;-58
2023/07/28 00:55:41;;;;;;;;;;;;;;;12.66;76.62;95323.91;5134051;28;1043;-58
2023/07/28 00:58:08;;;;;;;;;;;;;;;12.45;77.50;95328.97;5135287;27;937;-58
2023/07/28 01:00:34;;;;;;;;;;;;;;;12.42;77.83;95324.75;5137480;27;1091;-58
2023/07/28 01:03:00;;;;;;;;;;;;;;;12.49;77.55;95325.78;5137623;27;1011;-58
2023/07/28 01:05:32;;;;;;;;;;;;;;;12.50;77.62;95323.94;5137372;27;1052;-58
2023/07/28 01:08:16;;;;;;;;;;;;;;;12.66;77.25;95318.56;5131729;27;2580;-58
2023/07/28 01:10:43;;;;;;;;;;;;;;;12.69;76.88;95326.28;5116925;28;987;-58
2023/07/28 01:13:09;;;;;;;;;;;;;;;12.84;76.22;95314.81;5116617;28;1107;-58
2023/07/28 01:15:35;;;;;;;;;;;;;;;12.77;76.54;95320.06;5116748;28;1036;-58
2023/07/28 01:18:01;;;;;;;;;;;;;;;12.68;76.52;95324.59;5116648;28;984;-57
2023/07/28 01:20:29;;;;;;;;;;;;;;;12.41;77.01;95315.06;5116881;28;965;-58
2023/07/28 01:23:18;;;;;;;;;;;;;;;12.22;77.80;95320.78;5116594;28;1103;-58
2023/07/28 01:25:47;;;;;;;;;;;;;;;12.07;78.63;95321.41;5116634;28;1913;-58
2023/07/28 01:28:13;;;;;;;;;;;;;;;12.09;78.66;95316.72;5117036;27;1181;-58
2023/07/28 01:30:39;;;;;;;;;;;;;;;12.09;78.53;95321.25;5136895;27;973;-58
2023/07/28 01:33:08;;;;;;;;;;;;;;;12.05;78.62;95319.91;5137287;27;961;-58
2023/07/28 01:35:35;;;;;;;;;;;;;;;12.16;78.38;95313.38;5137068;27;1031;-58
2023/07/28 01:38:01;;;;;;;;;;;;;;;12.20;78.24;95320.94;5137205;27;1052;-58
2023/07/28 01:40:27;;;;;;;;;;;;;;;12.38;77.86;95318.06;5137014;27;1100;-58
2023/07/28 01:42:53;;;;;;;;;;;;;;;12.50;77.28;95318.56;5136805;27;1041;-58
2023/07/28 01:45:19;;;;;;;;;;;;;;;12.55;77.13;95318.91;5136825;27;1035;-58
2023/07/28 01:47:45;;;;;;;;;;;;;;;12.52;77.26;95321.94;5136774;27;1995;-58
2023/07/28 01:50:11;;;;;;;;;;;;;;;12.45;77.09;95320.94;5136727;27;1011;-58
2023/07/28 01:52:37;;;;;;;;;;;;;;;12.41;77.08;95323.09;5136806;27;1040;-58
2023/07/28 01:55:03;;;;;;;;;;;;;;;12.30;77.36;95324.28;5136562;27;1277;-58
2023/07/28 01:57:32;;;;;;;;;;;;;;;12.03;78.03;95313.91;5136395;27;1032;-58
2023/07/28 01:59:58;;;;;;;;;;;;;;;12.03;78.20;95325.44;5136353;27;1708;-58
2023/07/28 02:02:24;;;;;;;;;;;;;;;11.96;78.02;95320.91;5136525;27;1143;-58
2023/07/28 02:04:50;;;;;;;;;;;;;;;11.70;78.75;95321.81;5136539;27;973;-58
2023/07/28 02:07:16;;;;;;;;;;;;;;;11.57;79.89;95324.13;5136115;27;1984;-58
2023/07/28 02:09:42;;;;;;;;;;;;;;;11.77;79.21;95319.34;5135308;27;951;-58
2023/07/28 02:12:08;;;;;;;;;;;;;;;12.03;78.35;95314.72;5136509;27;972;-58
2023/07/28 02:14:34;;;;;;;;;;;;;;;12.14;77.85;95324.28;5135888;27;1217;-58
2023/07/28 02:17:00;;;;;;;;;;;;;;;11.96;77.98;95319.06;5136421;27;965;-58
2023/07/28 02:19:26;;;;;;;;;;;;;;;11.66;78.87;95315.13;5117785;27;1028;-58
2023/07/28 02:21:52;;;;;;;;;;;;;;;11.32;80.68;95322.22;5136164;27;970;-57
2023/07/28 02:24:18;;;;;;;;;;;;;;;11.37;81.04;95326.25;5135808;27;1198;-58
2023/07/28 02:26:44;;;;;;;;;;;;;;;11.65;79.75;95332.22;5135819;27;1911;-58
2023/07/28 02:29:10;;;;;;;;;;;;;;;11.68;79.10;95319.31;5135563;27;1217;-57
2023/07/28 02:31:36;;;;;;;;;;;;;;;11.57;79.52;95318.78;5136053;27;978;-58
2023/07/28 02:34:02;;;;;;;;;;;;;;;11.48;80.08;95316.09;5135747;27;1094;-58
2023/07/28 02:36:28;;;;;;;;;;;;;;;11.62;79.75;95322.63;5135548;27;1031;-57
2023/07/28 02:38:54;;;;;;;;;;;;;;;11.77;78.99;95327.38;5135777;27;973;-57
2023/07/28 02:41:20;;;;;;;;;;;;;;;11.80;79.29;95329.72;5135783;27;1027;-58
2023/07/28 02:43:46;;;;;;;;;;;;;;;11.53;79.55;95320.94;5135587;27;1004;-58
2023/07/28 02:46:11;;;;;;;;;;;;;;;11.39;80.10;95327.75;5135370;27;1909;-58
2023/07/28 02:48:37;;;;;;;;;;;;;;;11.31;80.09;95327.75;5135644;27;971;-58
2023/07/28 02:51:03;;;;;;;;;;;;;;;11.44;79.71;95317.41;5135442;27;1031;-58
2023/07/28 02:53:29;;;;;;;;;;;;;;;11.57;79.54;95330.31;5135327;27;1629;-58
2023/07/28 02:55:56;;;;;;;;;;;;;;;11.43;79.90;95328.28;5135718;27;988;-59
2023/07/28 02:58:22;;;;;;;;;;;;;;;11.25;80.67;95326.53;5135175;27;1090;-59
2023/07/28 03:00:48;;;;;;;;;;;;;;;11.13;80.70;95333.16;5135492;27;974;-58
2023/07/28 03:03:14;;;;;;;;;;;;;;;11.19;80.56;95334.38;5135040;27;1118;-58
2023/07/28 03:05:40;;;;;;;;;;;;;;;11.33;79.85;95323.88;5135235;27;1913;-58
2023/07/28 03:08:06;;;;;;;;;;;;;;;11.46;79.80;95327.97;5135226;27;964;-58
2023/07/28 03:10:32;;;;;;;;;;;;;;;11.45;79.85;95336.97;5135032;27;1028;-59
2023/07/28 03:12:58;;;;;;;;;;;;;;;11.47;79.35;95330.47;5140700;27;1276;-58
2023/07/28 03:15:24;;;;;;;;;;;;;;;11.61;78.88;95333.50;5155862;27;968;-58
2023/07/28 03:17:50;;;;;;;;;;;;;;;11.52;78.88;95330.81;5155964;27;991;-57
2023/07/28 03:20:16;;;;;;;;;;;;;;;11.37;79.09;95321.72;5136863;27;1040;-57
2023/07/28 03:22:43;;;;;;;;;;;;;;;11.30;79.43;95318.03;5155850;27;964;-57
2023/07/28 03:25:10;;;;;;;;;;;;;;;11.23;79.92;95317.84;5155765;27;995;-57
2023/07/28 03:27:36;;;;;;;;;;;;;;;11.40;79.30;95325.91;5155347;27;1984;-57
2023/07/28 03:30:02;;;;;;;;;;;;;;;11.50;78.83;95329.31;5139672;27;1164;-57
2023/07/28 03:32:28;;;;;;;;;;;;;;;11.38;79.53;95333.28;5134580;27;1089;-57
2023/07/28 03:34:54;;;;;;;;;;;;;;;11.33;79.97;95331.91;5134559;27;1031;-57
2023/07/28 03:37:20;;;;;;;;;;;;;;;11.36;80.20;95338.78;5134491;27;1957;-56
2023/07/28 03:39:46;;;;;;;;;;;;;;;11.30;80.74;95340.25;5134534;27;1032;-56
2023/07/28 03:42:12;;;;;;;;;;;;;;;11.10;82.11;95338.84;5134391;27;1320;-57
2023/07/28 03:44:38;;;;;;;;;;;;;;;11.14;82.11;95343.72;5134464;27;1051;-57
2023/07/28 03:47:04;;;;;;;;;;;;;;;11.48;80.61;95350.88;5116496;27;1983;-56
2023/07/28 03:49:30;;;;;;;;;;;;;;;11.68;79.68;95347.94;5134621;27;972;-57
2023/07/28 03:51:56;;;;;;;;;;;;;;;11.77;79.84;95349.63;5134678;27;1048;-57
2023/07/28 03:54:22;;;;;;;;;;;;;;;11.51;80.96;95360.44;5134372;27;972;-56
2023/07/28 03:56:48;;;;;;;;;;;;;;;11.45;81.17;95359.22;5134604;27;1007;-56
2023/07/28 03:59:14;;;;;;;;;;;;;;;11.68;80.35;95364.84;5134233;27;1071;-57
2023/07/28 04:01:40;;;;;;;;;;;;;;;11.84;80.78;95366.75;5134548;28;1133;-56
2023/07/28 04:04:06;;;;;;;;;;;;;;;11.92;80.76;95371.31;5134476;28;954;-56
2023/07/28 04:06:53;;;;;;;;;;;;;;;12.10;80.33;95368.47;5134159;28;1976;-57
2023/07/28 04:09:19;;;;;;;;;;;;;;;12.27;79.92;95372.03;5134457;28;988;-57
2023/07/28 04:11:45;;;;;;;;;;;;;;;12.25;80.80;95382.91;5134459;28;990;-58
2023/07/28 04:14:12;;;;;;;;;;;;;;;12.42;79.75;95378.41;5134111;28;1270;-58
2023/07/28 04:16:38;;;;;;;;;;;;;;;12.76;79.21;95388.13;5134195;28;1095;-58
2023/07/28 04:19:04;;;;;;;;;;;;;;;12.81;79.42;95382.28;5134461;28;1039;-57
2023/07/28 04:21:30;;;;;;;;;;;;;;;12.76;80.07;95381.94;5134082;28;1041;-58
2023/07/28 04:23:56;;;;;;;;;;;;;;;12.88;79.50;95383.25;5134035;28;1207;-58
2023/07/28 04:26:23;;;;;;;;;;;;;;;13.13;78.49;95380.50;5134150;28;1909;-58
2023/07/28 04:28:49;;;;;;;;;;;;;;;13.41;76.72;95381.84;5134029;28;1158;-58
2023/07/28 04:31:15;;;;;;;;;;;;;;;13.77;75.27;95388.56;5133914;28;1040;-58
2023/07/28 04:33:41;;;;;;;;;;;;;;;13.92;74.59;95381.44;5136906;27;993;-58
2023/07/28 04:36:07;;;;;;;;;;;;;;;14.00;74.52;95376.03;5138069;27;1185;-57
2023/07/28 04:38:33;;;;;;;;;;;;;;;14.15;72.78;95388.69;5137868;27;1107;-57
2023/07/28 04:40:59;;;;;;;;;;;;;;;14.28;73.11;95386.25;5137958;27;1052;-58
2023/07/28 04:43:25;;;;;;;;;;;;;;;14.38;72.38;95386.88;5137828;27;1098;-58
2023/07/28 04:45:51;;;;;;;;;;;;;;;14.30;73.29;95386.09;5138158;27;2396;-58
2023/07/28 04:48:17;;;;;;;;;;;;;;;14.47;72.57;95386.81;5137860;27;1010;-58
2023/07/28 04:50:44;;;;;;;;;;;;;;;14.56;71.74;95381.19;5138058;27;974;-58
2023/07/28 04:53:10;;;;;;;;;;;;;;;14.39;71.85;95385.03;5137964;27;1050;-57
2023/07/28 04:55:36;;;;;;;;;;;;;;;14.56;71.51;95378.50;5137653;27;950;-58
2023/07/28 04:58:02;;;;;;;;;;;;;;;14.84;70.98;95386.88;5137849;27;1042;-58
2023/07/28 05:00:28;;;;;;;;;;;;;;;15.06;70.55;95389.69;5137575;27;976;-58
2023/07/28 05:02:54;;;;;;;;;;;;;;;15.00;71.10;95385.88;5137777;27;1246;-57
2023/07/28 05:05:20;;;;;;;;;;;;;;;14.91;70.10;95381.63;5137485;27;1032;-58
2023/07/28 05:07:46;;;;;;;;;;;;;;;14.96;70.93;95383.75;5137656;27;1993;-57
2023/07/28 05:10:12;;;;;;;;;;;;;;;15.03;69.93;95377.44;5137260;27;995;-57
2023/07/28 05:12:38;;;;;;;;;;;;;;;15.29;69.87;95380.72;5137442;27;1235;-57
2023/07/28 05:15:04;;;;;;;;;;;;;;;15.60;69.08;95369.78;5137528;27;1059;-58
2023/07/28 05:17:30;;;;;;;;;;;;;;;15.59;68.38;95382.41;5137145;27;1040;-58
2023/07/28 05:19:56;;;;;;;;;;;;;;;15.41;68.51;95371.19;5137233;27;1126;-58
2023/07/28 05:22:22;;;;;;;;;;;;;;;15.50;69.45;95375.44;5137360;27;1032;-57
2023/07/28 05:24:48;;;;;;;;;;;;;;;15.40;70.67;95373.03;5137086;27;1032;-58
2023/07/28 05:27:14;;;;;;;;;;;;;;;15.71;68.75;95374.69;5137248;27;1922;-58
2023/07/28 05:29:40;;;;;;;;;;;;;;;16.08;69.46;95366.66;5136934;27;1153;-58
2023/07/28 05:32:06;;;;;;;;;;;;;;;16.04;67.97;95365.38;5137345;27;991;-58
2023/07/28 05:34:32;;;;;;;;;;;;;;;16.03;68.71;95358.28;5137008;27;970;-58
2023/07/28 05:36:58;;;;;;;;;;;;;;;16.25;68.69;95368.09;5136864;27;995;-58
2023/07/28 05:39:24;;;;;;;;;;;;;;;16.48;68.21;95361.69;5136697;27;1039;-57
2023/07/28 05:41:50;;;;;;;;;;;;;;;16.45;68.15;95368.31;5136791;27;1209;-58
2023/07/28 05:44:16;;;;;;;;;;;;;;;16.31;67.71;95361.09;5136887;27;1041;-58
2023/07/28 05:46:42;;;;;;;;;;;;;;;16.66;67.46;95358.53;5136917;27;1913;-58
2023/07/28 05:49:08;;;;;;;;;;;;;;;16.84;64.94;95361.63;5136667;27;1032;-57
2023/07/28 05:51:34;;;;;;;;;;;;;;;17.26;65.70;95370.66;5136835;27;975;-58
2023/07/28 05:54:00;;;;;;;;;;;;;;;17.29;65.50;95361.34;5136779;27;1064;-58
2023/07/28 05:56:26;;;;;;;;;;;;;;;17.54;63.72;95359.00;5136504;27;1098;-57
2023/07/28 05:58:52;;;;;;;;;;;;;;;17.69;65.02;95354.28;5136526;27;1035;-58
2023/07/28 06:01:19;;;;;;;;;;;;;;;17.76;65.09;95357.06;5136381;27;1114;-58
2023/07/28 06:03:45;;;;;;;;;;;;;;;17.79;63.93;95366.63;5136452;27;1047;-58
2023/07/28 06:06:12;;;;;;;;;;;;;;;18.07;62.68;95356.56;5136319;27;1910;-58
2023/07/28 06:08:38;;;;;;;;;;;;;;;18.12;64.26;95354.09;5136603;27;1048;-58
2023/07/28 06:11:05;;;;;;;;;;;;;;;18.37;62.63;95353.53;5136509;27;972;-58
2023/07/28 06:13:31;;;;;;;;;;;;;;;18.58;61.91;95355.25;5135958;27;1068;-58
2023/07/28 06:15:58;;;;;;;;;;;;;;;18.56;61.49;95359.22;5136200;27;1199;-57
2023/07/28 06:18:24;;;;;;;;;;;;;;;18.49;61.70;95353.78;5136219;27;991;-57
2023/07/28 06:20:50;;;;;;;;;;;;;;;18.53;60.69;95353.16;5136140;27;981;-57
2023/07/28 06:23:16;;;;;;;;;;;;;;;18.68;60.36;95347.53;5136006;27;1037;-58
2023/07/28 06:25:44;;;;;;;;;;;;;;;18.70;61.66;95345.50;5136135;27;1918;-58
2023/07/28 06:28:10;;;;;;;;;;;;;;;19.02;59.11;95353.03;5135837;27;1036;-55
2023/07/28 06:30:37;;;;;;;;;;;;;;;19.30;60.50;95347.38;5115677;28;1003;-56
2023/07/28 06:33:04;;;;;;;;;;;;;;;19.55;59.04;95344.81;5115436;28;1027;-57
2023/07/28 06:35:30;;;;;;;;;;;;;;;19.50;57.79;95350.03;5115459;28;1029;-56
2023/07/28 06:37:57;;;;;;;;;;;;;;;19.76;57.98;95343.75;5115143;28;1032;-56
2023/07/28 06:40:22;;;;;;;;;;;;;;;19.83;58.27;95344.56;5115316;28;1057;-57
2023/07/28 06:42:48;;;;;;;;;;;;;;;19.92;58.32;95333.44;5115453;28;1045;-57
2023/07/28 06:45:14;;;;;;;;;;;;;;;20.22;54.76;95344.59;5115107;28;1009;-58
2023/07/28 06:47:40;;;;;;;;;;;;;;;20.48;56.19;95339.00;5114865;28;1910;-57
2023/07/28 06:50:06;;;;;;;;;;;;;;;20.40;55.83;95342.00;5114850;28;1036;-57
2023/07/28 06:52:32;;;;;;;;;;;;;;;20.22;54.26;95342.72;5114777;28;974;-57
2023/07/28 06:54:58;;;;;;;;;;;;;;;20.47;54.86;95344.69;5114718;28;969;-57
2023/07/28 06:57:24;;;;;;;;;;;;;;;20.89;52.78;95341.47;5114730;28;1032;-57
2023/07/28 06:59:50;;;;;;;;;;;;;;;20.83;54.93;95338.63;5114635;28;1084;-57
2023/07/28 07:02:16;;;;;;;;;;;;;;;20.92;53.58;95335.63;5114796;28;1073;-57
2023/07/28 07:04:42;;;;;;;;;;;;;;;21.12;52.37;95341.72;5114838;28;977;-57
2023/07/28 07:07:09;;;;;;;;;;;;;;;21.02;52.17;95344.94;5114426;28;1909;-57
2023/07/28 07:09:35;;;;;;;;;;;;;;;21.08;52.41;95336.94;5114474;28;1151;-57
2023/07/28 07:12:01;;;;;;;;;;;;;;;21.27;52.56;95341.38;5114461;28;1059;-57
2023/07/28 07:14:27;;;;;;;;;;;;;;;21.43;51.75;95348.13;5114332;28;1218;-57
2023/07/28 07:16:53;;;;;;;;;;;;;;;21.60;52.05;95337.53;5114454;28;974;-56
2023/07/28 07:19:19;;;;;;;;;;;;;;;21.90;50.00;95336.78;5114271;28;974;-57
2023/07/28 07:21:45;;;;;;;;;;;;;;;21.98;51.68;95339.19;5114528;28;988;-56
2023/07/28 07:24:13;;;;;;;;;;;;;;;22.07;49.84;95342.44;5114419;28;989;-57
2023/07/28 07:26:39;;;;;;;;;;;;;;;22.26;49.77;95335.94;5114143;28;1914;-56
2023/07/28 07:29:06;;;;;;;;;;;;;;;22.25;50.70;95330.69;5122068;27;1202;-57
2023/07/28 07:31:33;;;;;;;;;;;;;;;22.19;50.14;95329.72;5134673;27;1047;-57
2023/07/28 07:33:59;;;;;;;;;;;;;;;22.33;49.83;95331.25;5134949;27;1015;-57
2023/07/28 07:36:25;;;;;;;;;;;;;;;22.59;48.69;95340.09;5134439;27;972;-57
2023/07/28 07:38:51;;;;;;;;;;;;;;;22.83;48.09;95323.81;5134838;27;1019;-57
2023/07/28 07:41:20;;;;;;;;;;;;;;;22.98;47.86;95326.94;5116477;27;1018;-56
2023/07/28 07:43:50;;;;;;;;;;;;;;;23.12;47.69;95312.03;5134022;27;1040;-57
2023/07/28 07:46:16;;;;;;;;;;;;;;;23.24;49.01;95319.38;5134266;27;2000;-56
2023/07/28 07:48:43;;;;;;;;;;;;;;;23.09;47.93;95315.25;5134462;27;1080;-57
2023/07/28 07:51:09;;;;;;;;;;;;;;;22.82;47.93;95322.97;5134279;27;1084;-56
2023/07/28 07:53:36;;;;;;;;;;;;;;;23.11;46.75;95321.28;5134643;27;1029;-56
2023/07/28 07:56:05;;;;;;;;;;;;;;;23.36;47.07;95322.97;5134676;27;989;-57
2023/07/28 07:58:31;;;;;;;;;;;;;;;23.37;47.59;95317.28;5134229;27;1082;-58
2023/07/28 08:00:57;;;;;;;;;;;;;;;23.63;48.88;95311.56;5134225;28;1020;-58
2023/07/28 08:03:23;;;;;;;;;;;;;;;23.58;47.20;95318.56;5134425;28;1023;-57
2023/07/28 08:05:52;;;;;;;;;;;;;;;23.84;47.08;95316.41;5134101;28;2035;-58
2023/07/28 08:08:19;;;;;;;;;;;;;;;23.85;47.56;95318.09;5136360;27;1007;-58
2023/07/28 08:10:47;;;;;;;;;;;;;;;23.87;47.94;95313.22;5138795;27;1059;-58
2023/07/28 08:13:13;;;;;;;;;;;;;;;23.89;46.80;95308.34;5138310;27;1107;-58
2023/07/28 08:15:39;;;;;;;;;;;;;;;23.83;45.69;95309.31;5138564;27;1044;-58
2023/07/28 08:18:05;;;;;;;;;;;;;;;24.01;47.03;95302.03;5138407;27;1123;-58
2023/07/28 08:20:31;;;;;;;;;;;;;;;24.11;45.56;95297.59;5138531;27;969;-58
2023/07/28 08:22:57;;;;;;;;;;;;;;;24.16;45.01;95303.16;5138526;27;969;-58
2023/07/28 08:25:23;;;;;;;;;;;;;;;24.29;45.14;95299.31;5138285;27;1051;-58
2023/07/28 08:27:49;;;;;;;;;;;;;;;24.41;45.04;95293.78;5120225;27;1995;-58
2023/07/28 08:30:15;;;;;;;;;;;;;;;24.45;44.15;95283.19;5120071;27;1182;-58
2023/07/28 08:32:42;;;;;;;;;;;;;;;24.68;44.47;95285.00;5138117;27;966;-58
2023/07/28 08:35:08;;;;;;;;;;;;;;;24.68;46.11;95282.28;5138359;27;1052;-58
2023/07/28 08:37:34;;;;;;;;;;;;;;;24.83;44.96;95271.59;5138281;27;954;-57
2023/07/28 08:40:00;;;;;;;;;;;;;;;24.68;43.42;95282.28;5138139;27;1031;-57
2023/07/28 08:42:34;;;;;;;;;;;;;;;24.74;43.45;95275.84;5137865;27;1095;-57
2023/07/28 08:45:00;;;;;;;;;;;;;;;24.88;44.90;95273.59;5138195;27;1011;-58
2023/07/28 08:47:26;;;;;;;;;;;;;;;25.04;43.34;95263.72;5137743;27;1983;-58
2023/07/28 08:49:52;;;;;;;;;;;;;;;25.15;44.37;95260.06;5137968;27;1015;-58
2023/07/28 08:52:18;;;;;;;;;;;;;;;25.29;42.82;95266.09;5137880;27;1051;-58
2023/07/28 08:54:44;;;;;;;;;;;;;;;25.53;42.64;95263.94;5137921;27;957;-58
2023/07/28 08:57:10;;;;;;;;;;;;;;;25.50;42.82;95259.00;5137653;27;1011;-57
2023/07/28 08:59:41;;;;;;;;;;;;;;;25.53;42.99;95255.72;5137570;27;1070;-58
2023/07/28 09:02:09;;;;;;;;;;;;;;;25.64;42.20;95249.31;5137512;27;1043;-56
2023/07/28 09:04:34;;;;;;;;;;;;;;;25.67;42.58;95240.59;5137718;27;989;-57
2023/07/28 09:07:04;;;;;;;;;;;;;;;25.87;43.54;95245.50;5137360;27;1988;-58
2023/07/28 09:09:31;;;;;;;;;;;;;;;26.09;43.40;95236.50;5137284;27;1148;-58
2023/07/28 09:11:59;;;;;;;;;;;;;;;26.01;41.83;95234.19;5137441;27;962;-58
2023/07/28 09:14:25;;;;;;;;;;;;;;;26.08;42.15;95227.41;5137181;27;1083;-57
2023/07/28 09:16:52;;;;;;;;;;;;;;;26.15;42.36;95221.75;5137195;27;1048;-57
2023/07/28 09:19:19;;;;;;;;;;;;;;;26.23;40.43;95231.41;5136947;27;1044;-58
2023/07/28 09:21:56;;;;;;;;;;;;;;;26.43;41.45;95228.09;5137146;27;1130;-58
2023/07/28 09:24:22;;;;;;;;;;;;;;;26.53;43.03;95222.69;5137060;27;1036;-58
2023/07/28 09:26:50;;;;;;;;;;;;;;;26.72;42.13;95208.63;5137060;27;1934;-57
2023/07/28 09:29:16;;;;;;;;;;;;;;;26.75;40.12;95213.56;5136788;27;1162;-57
2023/07/28 09:31:42;;;;;;;;;;;;;;;27.03;41.09;95210.53;5136885;27;1028;-57
2023/07/28 09:34:11;;;;;;;;;;;;;;;27.17;40.90;95207.31;5136991;27;1039;-57
2023/07/28 09:36:41;;;;;;;;;;;;;;;27.03;39.85;95207.78;5137148;27;957;-57
2023/07/28 09:39:08;;;;;;;;;;;;;;;27.00;40.66;95202.81;5136792;27;1043;-57
2023/07/28 09:41:38;;;;;;;;;;;;;;;27.11;38.92;95200.13;5136886;27;1064;-57
2023/07/28 09:44:05;;;;;;;;;;;;;;;27.16;39.90;95191.94;5136625;27;1087;-58
2023/07/28 09:46:37;;;;;;;;;;;;;;;27.38;40.41;95195.41;5136523;27;1905;-57
2023/07/28 09:49:04;;;;;;;;;;;;;;;27.54;38.57;95198.22;5136909;27;976;-57
2023/07/28 09:51:31;;;;;;;;;;;;;;;27.62;40.51;95189.47;5136499;27;1071;-59
2023/07/28 09:54:05;;;;;;;;;;;;;;;27.72;39.85;95192.25;5136556;27;1048;-57
2023/07/28 09:56:32;;;;;;;;;;;;;;;27.75;40.39;95185.41;5118177;27;1087;-56
2023/07/28 09:58:58;;;;;;;;;;;;;;;27.75;38.76;95194.47;5136773;27;1002;-57
2023/07/28 10:01:25;;;;;;;;;;;;;;;27.61;38.27;95194.13;5136391;27;1031;-56
2023/07/28 10:03:51;;;;;;;;;;;;;;;27.61;38.03;95193.31;5136711;27;1044;-55
2023/07/28 10:06:18;;;;;;;;;;;;;;;27.78;39.69;95184.88;5117948;27;1902;-55
2023/07/28 10:08:44;;;;;;;;;;;;;;;27.81;36.66;95182.41;5136377;27;1039;-57
2023/07/28 10:11:15;;;;;;;;;;;;;;;27.79;37.39;95181.88;5136497;27;965;-55
2023/07/28 10:13:46;;;;;;;;;;;;;;;27.81;36.72;95178.81;5136145;27;1084;-56
2023/07/28 10:16:14;;;;;;;;;;;;;;;28.00;38.21;95176.44;5133521;27;2493;-57
2023/07/28 10:18:40;;;;;;;;;;;;;;;27.99;37.94;95167.38;5115842;28;1039;-57
2023/07/28 10:21:13;;;;;;;;;;;;;;;28.07;37.98;95163.28;5115800;28;981;-56
2023/07/28 10:23:39;;;;;;;;;;;;;;;28.12;39.12;95159.72;5115660;28;1022;-57
2023/07/28 10:26:05;;;;;;;;;;;;;;;28.32;37.22;95158.94;5115581;28;1988;-55
2023/07/28 10:28:36;;;;;;;;;;;;;;;28.40;38.21;95156.47;5118070;27;1219;-57
2023/07/28 10:31:02;;;;;;;;;;;;;;;28.37;36.71;95158.94;5135012;27;1094;-57
2023/07/28 10:33:30;;;;;;;;;;;;;;;28.33;37.52;95157.84;5135815;27;972;-56
2023/07/28 10:35:57;;;;;;;;;;;;;;;28.26;35.30;95155.34;5119903;27;2503;-57
2023/07/28 10:38:28;;;;;;;;;;;;;;;28.07;34.18;95170.72;5115072;28;1159;-56
2023/07/28 10:41:04;;;;;;;;;;;;;;;28.12;37.19;95155.06;5115141;28;1056;-59
2023/07/28 10:43:30;;;;;;;;;;;;;;;28.17;33.84;95167.97;5096859;28;1036;-59
2023/07/28 10:45:56;;;;;;;;;;;;;;;28.21;35.66;95153.44;5114900;28;2020;-59
2023/07/28 10:48:23;;;;;;;;;;;;;;;28.31;35.69;95158.09;5114867;28;961;-59
2023/07/28 10:50:49;;;;;;;;;;;;;;;28.30;35.72;95148.19;5115217;28;1003;-59
2023/07/28 10:53:16;;;;;;;;;;;;;;;28.14;34.37;95147.34;5115103;28;1049;-59
2023/07/28 10:55:42;;;;;;;;;;;;;;;28.24;34.73;95138.31;5115029;28;995;-60
2023/07/28 10:58:08;;;;;;;;;;;;;;;28.42;34.74;95135.03;5114811;28;1043;-60
2023/07/28 11:00:34;;;;;;;;;;;;;;;28.60;34.63;95139.16;5114572;28;1087;-60
2023/07/28 11:03:00;;;;;;;;;;;;;;;28.65;32.91;95145.75;5114717;28;1019;-59
2023/07/28 11:05:27;;;;;;;;;;;;;;;28.64;35.64;95144.13;5114443;28;1020;-60
2023/07/28 11:07:57;;;;;;;;;;;;;;;28.62;33.60;95136.97;5114824;28;1909;-60
2023/07/28 11:10:24;;;;;;;;;;;;;;;28.47;34.24;95136.13;5114444;28;1029;-60
2023/07/28 11:12:51;;;;;;;;;;;;;;;28.52;35.23;95128.72;5114405;28;1211;-60
2023/07/28 11:15:18;;;;;;;;;;;;;;;28.52;33.58;95134.22;5114386;28;1032;-57
2023/07/28 11:17:46;;;;;;;;;;;;;;;28.41;32.84;95140.78;5114498;28;1044;-56
2023/07/28 11:20:17;;;;;;;;;;;;;;;28.40;33.97;95133.63;5114436;28;2193;-55
2023/07/28 11:22:44;;;;;;;;;;;;;;;28.55;34.54;95125.44;5114651;28;1001;-60
2023/07/28 11:25:10;;;;;;;;;;;;;;;28.82;34.62;95124.31;5114146;28;1131;-59
2023/07/28 11:27:37;;;;;;;;;;;;;;;29.02;34.69;95124.25;5114267;28;1917;-59
2023/07/28 11:30:03;;;;;;;;;;;;;;;29.07;34.88;95117.94;5130031;27;1245;-58
2023/07/28 11:32:30;;;;;;;;;;;;;;;29.00;34.35;95120.16;5134676;27;968;-60
2023/07/28 11:35:03;;;;;;;;;;;;;;;28.88;33.35;95119.63;5134627;27;1035;-60
2023/07/28 11:37:30;;;;;;;;;;;;;;;28.79;33.57;95127.63;5134859;27;1037;-60
2023/07/28 11:39:56;;;;;;;;;;;;;;;28.95;33.66;95114.66;5134796;27;1036;-59
2023/07/28 11:42:23;;;;;;;;;;;;;;;29.15;33.19;95111.06;5134728;27;973;-60
2023/07/28 11:44:49;;;;;;;;;;;;;;;29.16;33.90;95101.72;5134519;27;1039;-60
2023/07/28 11:47:18;;;;;;;;;;;;;;;29.29;33.99;95094.78;5134319;27;1972;-60
2023/07/28 11:49:48;;;;;;;;;;;;;;;29.38;31.58;95107.69;5134281;27;1091;-60
2023/07/28 11:52:15;;;;;;;;;;;;;;;29.44;34.02;95100.22;5134639;27;1053;-60
2023/07/28 11:54:41;;;;;;;;;;;;;;;29.22;32.10;95100.59;5134391;27;1087;-60
2023/07/28 12:00:30;;;;;;;;;;;;;;;29.20;31.53;95092.59;5114005;28;830;-60
2023/07/28 12:03:05;;;;;;;;;;;;;;;29.09;33.31;95088.22;5113769;28;1055;-60
2023/07/28 12:05:32;;;;;;;;;;;;;;;29.16;34.18;95083.28;5113595;28;1103;-60
2023/07/28 12:07:59;;;;;;;;;;;;;;;29.24;34.23;95073.59;5113678;28;2056;-60
2023/07/28 12:10:25;;;;;;;;;;;;;;;29.17;32.34;95073.06;5113805;28;994;-60
2023/07/28 12:12:51;;;;;;;;;;;;;;;29.24;34.09;95070.03;5113735;28;1222;-61
2023/07/28 12:15:20;;;;;;;;;;;;;;;29.30;33.61;95066.97;5113547;28;1104;-60
2023/07/28 12:18:05;;;;;;;;;;;;;;;29.39;34.69;95061.72;5113950;28;999;-59
2023/07/28 12:20:35;;;;;;;;;;;;;;;29.45;34.24;95054.25;5113543;28;1024;-60
2023/07/28 12:23:01;;;;;;;;;;;;;;;29.35;34.70;95055.13;5113835;28;972;-60
2023/07/28 12:25:27;;;;;;;;;;;;;;;29.20;33.70;95053.25;5113678;28;991;-60
2023/07/28 12:27:53;;;;;;;;;;;;;;;29.32;35.29;95050.97;5113916;28;2016;-60
2023/07/28 12:30:19;;;;;;;;;;;;;;;29.42;33.98;95050.09;5131796;28;1202;-60
2023/07/28 12:32:46;;;;;;;;;;;;;;;29.43;34.07;95050.94;5112824;28;2730;-60
2023/07/28 12:35:12;;;;;;;;;;;;;;;29.59;33.66;95041.47;5095373;28;984;-59
2023/07/28 12:37:38;;;;;;;;;;;;;;;29.77;33.55;95034.53;5113319;28;1021;-60
2023/07/28 12:40:05;;;;;;;;;;;;;;;29.68;33.79;95028.75;5113385;28;1021;-59
2023/07/28 12:42:32;;;;;;;;;;;;;;;29.64;34.19;95032.38;5113606;28;1001;-60
2023/07/28 12:44:58;;;;;;;;;;;;;;;29.62;33.43;95040.13;5113514;28;980;-59
2023/07/28 12:47:24;;;;;;;;;;;;;;;29.77;32.71;95035.34;5113289;28;1983;-60
2023/07/28 12:49:50;;;;;;;;;;;;;;;29.83;29.83;95043.59;5113294;28;1028;-60
2023/07/28 12:52:16;;;;;;;;;;;;;;;29.93;32.59;95043.50;5113138;28;1040;-60
2023/07/28 12:54:42;;;;;;;;;;;;;;;29.92;32.58;95036.38;5115668;28;1041;-60
2023/07/28 12:57:10;;;;;;;;;;;;;;;29.92;32.79;95033.63;5117306;28;1026;-60
2023/07/28 12:59:36;;;;;;;;;;;;;;;29.77;32.56;95023.53;5117374;28;999;-60
2023/07/28 13:02:02;;;;;;;;;;;;;;;29.76;34.37;95013.59;5117323;28;969;-60